Time;durP1;ratioP1;P1;durP2;ratioP2;P2;SDS_P1;SDS_P2;PMS_P1;PMS_P2;Temp;Humidity;BMP_temperature;BMP_pressure;BME280_temperature;BME280_humidity;BME280_pressure;Samples;Min_cycle;Max_cycle;Signal;HPM_P1;HPM_P2
2022/02/24 00:02:07;;;;;;;9.23;3.42;;;8.10;99.90;;;;;;4974993;28;20031;-74
2022/02/24 00:04:33;;;;;;;7.25;3.15;;;8.10;99.90;;;;;;4974688;28;20376;-75
2022/02/24 00:07:00;;;;;;;5.95;2.92;;;8.10;99.90;;;;;;4974015;28;20098;-75
2022/02/24 00:09:25;;;;;;;5.50;3.20;;;8.10;99.90;;;;;;4974709;28;20038;-75
2022/02/24 00:11:51;;;;;;;6.05;3.75;;;8.10;99.90;;;;;;4975542;28;20027;-78
2022/02/24 00:14:17;;;;;;;9.35;3.17;;;8.10;99.90;;;;;;4974460;28;20045;-77
2022/02/24 00:16:43;;;;;;;6.53;3.20;;;8.10;99.90;;;;;;4974772;28;20395;-78
2022/02/24 00:19:08;;;;;;;7.63;2.90;;;8.10;99.90;;;;;;4976251;28;20431;-77
2022/02/24 00:21:34;;;;;;;6.68;3.20;;;8.20;99.90;;;;;;4975275;28;20119;-78
2022/02/24 00:24:00;;;;;;;7.00;3.00;;;8.20;99.90;;;;;;4974508;28;20341;-77
2022/02/24 00:26:25;;;;;;;6.22;2.70;;;8.20;99.90;;;;;;4975142;28;20031;-77
2022/02/24 00:28:51;;;;;;;5.88;2.90;;;8.30;99.90;;;;;;4975152;28;20043;-77
2022/02/24 00:31:16;;;;;;;7.35;2.90;;;8.30;99.90;;;;;;4976632;28;20034;-77
2022/02/24 00:33:43;;;;;;;5.85;2.70;;;8.30;99.90;;;;;;4975572;28;20491;-77
2022/02/24 00:36:09;;;;;;;5.53;2.70;;;8.30;99.90;;;;;;4976092;28;20026;-77
2022/02/24 00:38:35;;;;;;;3.88;2.35;;;8.30;99.90;;;;;;4974932;28;20047;-77
2022/02/24 00:41:01;;;;;;;5.50;2.45;;;8.40;99.90;;;;;;4974508;28;20030;-78
2022/02/24 00:43:26;;;;;;;6.20;2.40;;;8.40;99.90;;;;;;4975342;28;20027;-74
2022/02/24 00:45:52;;;;;;;6.05;3.03;;;8.40;99.90;;;;;;4973605;28;20090;-76
2022/02/24 00:48:18;;;;;;;7.82;2.30;;;8.50;99.90;;;;;;4975091;28;20154;-74
2022/02/24 00:50:44;;;;;;;6.90;2.20;;;8.50;99.90;;;;;;4973384;28;20074;-76
2022/02/24 00:53:10;;;;;;;5.88;2.05;;;8.50;99.90;;;;;;4973227;28;20027;-74
2022/02/24 00:55:37;;;;;;;6.18;2.55;;;8.50;99.90;;;;;;4972998;28;20110;-74
2022/02/24 00:58:03;;;;;;;8.95;2.28;;;8.50;99.90;;;;;;4973340;28;20051;-75
2022/02/24 01:00:28;;;;;;;6.63;2.60;;;8.50;99.90;;;;;;4974224;28;20077;-74
2022/02/24 01:02:54;;;;;;;8.70;2.20;;;8.50;99.90;;;;;;4973443;28;20019;-74
2022/02/24 01:05:19;;;;;;;5.13;2.30;;;8.50;99.90;;;;;;4973937;28;20019;-75
2022/02/24 01:07:45;;;;;;;6.82;2.15;;;8.50;99.90;;;;;;4973664;28;20038;-77
2022/02/24 01:10:11;;;;;;;5.18;2.20;;;8.50;99.90;;;;;;4973828;28;20420;-75
2022/02/24 01:12:36;;;;;;;6.15;1.90;;;8.50;99.90;;;;;;4974418;28;20367;-74
2022/02/24 01:15:06;;;;;;;5.13;2.10;;;8.60;99.90;;;;;;4973653;28;20440;-75
2022/02/24 01:17:33;;;;;;;3.75;2.00;;;8.60;99.90;;;;;;4975167;28;20050;-74
2022/02/24 01:19:59;;;;;;;5.13;1.95;;;8.60;99.90;;;;;;4972842;28;20471;-74
2022/02/24 01:22:25;;;;;;;7.00;1.95;;;8.60;99.90;;;;;;4973759;28;20058;-74
2022/02/24 01:24:50;;;;;;;3.80;1.85;;;8.60;99.90;;;;;;4973730;28;20081;-75
2022/02/24 01:27:16;;;;;;;4.00;1.90;;;8.60;99.90;;;;;;4973330;28;20035;-74
2022/02/24 01:29:42;;;;;;;2.50;1.73;;;8.60;99.90;;;;;;4973241;28;20070;-74
2022/02/24 01:32:07;;;;;;;3.22;2.17;;;8.60;99.90;;;;;;4973867;28;20057;-74
2022/02/24 01:34:33;;;;;;;8.48;2.05;;;8.60;99.90;;;;;;4973367;28;20031;-74
2022/02/24 01:36:59;;;;;;;3.28;2.08;;;8.60;99.90;;;;;;4973628;28;20086;-74
2022/02/24 01:39:24;;;;;;;7.00;2.40;;;8.60;99.90;;;;;;4972739;28;20054;-74
2022/02/24 01:41:52;;;;;;;6.00;2.40;;;8.50;99.90;;;;;;4973915;28;20031;-74
2022/02/24 01:44:17;;;;;;;3.00;1.85;;;8.50;99.90;;;;;;4973022;28;20034;-74
2022/02/24 01:46:43;;;;;;;4.55;1.95;;;8.50;99.90;;;;;;4973065;28;20035;-74
2022/02/24 01:49:10;;;;;;;4.85;1.98;;;8.50;99.90;;;;;;4972331;28;20481;-74
2022/02/24 01:51:37;;;;;;;5.30;2.30;;;8.50;99.90;;;;;;4973252;28;20038;-74
2022/02/24 01:54:04;;;;;;;3.45;2.08;;;8.50;99.90;;;;;;4972690;28;20117;-74
2022/02/24 01:56:31;;;;;;;6.43;2.20;;;8.50;99.90;;;;;;4973189;28;20074;-74
2022/02/24 01:58:57;;;;;;;3.63;1.92;;;8.50;99.90;;;;;;4972826;28;20054;-75
2022/02/24 02:01:24;;;;;;;4.25;1.77;;;8.50;99.90;;;;;;4973417;28;20034;-74
2022/02/24 02:03:51;;;;;;;6.38;1.85;;;8.50;99.90;;;;;;4972635;28;20377;-75
2022/02/24 02:06:18;;;;;;;4.28;1.90;;;8.50;99.90;;;;;;4972888;28;20038;-74
2022/02/24 02:08:44;;;;;;;4.18;1.67;;;8.50;99.90;;;;;;4974261;28;20042;-74
2022/02/24 02:11:09;;;;;;;4.50;2.10;;;8.50;99.90;;;;;;4972034;28;20513;-74
2022/02/24 02:13:36;;;;;;;4.82;2.17;;;8.50;99.90;;;;;;4972474;28;20118;-74
2022/02/24 02:16:03;;;;;;;4.30;1.92;;;8.50;99.90;;;;;;4972466;28;20482;-74
2022/02/24 02:18:29;;;;;;;5.05;2.30;;;8.50;99.90;;;;;;4972187;28;20034;-74
2022/02/24 02:20:55;;;;;;;4.65;2.20;;;8.50;99.90;;;;;;4972006;28;20468;-75
2022/02/24 02:23:20;;;;;;;5.50;1.85;;;8.50;99.90;;;;;;4972508;28;20037;-74
2022/02/24 02:25:46;;;;;;;3.00;1.63;;;8.50;99.90;;;;;;4972401;28;20383;-74
2022/02/24 02:28:16;;;;;;;5.20;2.00;;;8.50;99.90;;;;;;4971423;28;20116;-74
2022/02/24 02:30:42;;;;;;;6.28;1.88;;;8.40;99.90;;;;;;4972522;28;20094;-73
2022/02/24 02:33:08;;;;;;;4.30;1.58;;;8.40;99.90;;;;;;4972115;28;20027;-74
2022/02/24 02:35:34;;;;;;;7.20;2.97;;;8.30;99.90;;;;;;4972647;28;20031;-74
2022/02/24 02:37:59;;;;;;;5.88;1.77;;;8.40;99.90;;;;;;4981019;28;20046;-74
2022/02/24 02:40:26;;;;;;;7.10;1.95;;;8.30;99.90;;;;;;4975562;28;20089;-74
2022/02/24 02:42:52;;;;;;;3.92;1.73;;;8.40;99.90;;;;;;4975165;28;20030;-75
2022/02/24 02:45:18;;;;;;;5.18;2.10;;;8.40;99.90;;;;;;4993025;28;20530;-75
2022/02/24 02:47:45;;;;;;;6.82;2.10;;;8.50;99.90;;;;;;4975975;28;20383;-74
2022/02/24 02:50:11;;;;;;;5.05;1.90;;;8.50;99.90;;;;;;4975334;28;20030;-75
2022/02/24 02:52:36;;;;;;;4.68;1.88;;;8.60;99.90;;;;;;4975612;28;20029;-74
2022/02/24 02:55:08;;;;;;;4.75;1.98;;;8.60;99.90;;;;;;4991925;28;20027;-74
2022/02/24 02:57:35;;;;;;;4.97;1.83;;;8.60;99.90;;;;;;4993128;28;20085;-74
2022/02/24 03:00:03;;;;;;;3.92;2.00;;;8.60;99.90;;;;;;4975412;28;20030;-76
2022/02/24 03:02:29;;;;;;;4.25;2.05;;;8.60;99.90;;;;;;4976176;28;20061;-75
2022/02/24 03:04:55;;;;;;;3.85;1.90;;;8.60;99.90;;;;;;4975770;28;20468;-80
2022/02/24 03:07:21;;;;;;;4.10;1.80;;;8.60;99.90;;;;;;4975569;28;20057;-75
2022/02/24 03:09:47;;;;;;;4.18;2.10;;;8.60;99.90;;;;;;4993221;28;20034;-75
2022/02/24 03:12:13;;;;;;;6.22;2.15;;;8.50;99.90;;;;;;4974939;28;20053;-74
2022/02/24 03:14:39;;;;;;;4.18;1.88;;;8.60;99.90;;;;;;4975107;28;20399;-74
2022/02/24 03:17:06;;;;;;;4.10;2.05;;;8.50;99.90;;;;;;4974698;28;20034;-74
2022/02/24 03:19:31;;;;;;;4.57;2.00;;;8.50;99.90;;;;;;4977148;28;20096;-77
2022/02/24 03:21:57;;;;;;;5.30;2.33;;;8.50;99.90;;;;;;4978839;28;20490;-77
2022/02/24 03:24:23;;;;;;;5.97;2.05;;;8.50;99.90;;;;;;4996510;28;20042;-76
2022/02/24 03:26:49;;;;;;;4.55;2.10;;;8.40;99.90;;;;;;4978924;28;20038;-76
2022/02/24 03:29:15;;;;;;;5.50;2.08;;;8.40;99.90;;;;;;4996074;28;20029;-76
2022/02/24 03:31:42;;;;;;;7.97;2.53;;;8.30;99.90;;;;;;4996353;28;20097;-76
2022/02/24 03:34:09;;;;;;;4.43;2.20;;;8.30;99.90;;;;;;4978600;28;20026;-76
2022/02/24 03:36:34;;;;;;;4.60;2.40;;;8.30;99.90;;;;;;4978172;28;20081;-76
2022/02/24 03:39:00;;;;;;;4.20;2.17;;;8.30;99.90;;;;;;4974254;28;20086;-77
2022/02/24 03:41:26;;;;;;;5.05;2.40;;;8.10;99.90;;;;;;4975456;28;20033;-76
2022/02/24 03:43:53;;;;;;;5.10;2.35;;;8.10;99.90;;;;;;4974706;28;20033;-76
2022/02/24 03:46:20;;;;;;;3.67;1.90;;;8.10;99.90;;;;;;4974759;28;20468;-77
2022/02/24 03:48:47;;;;;;;4.85;2.20;;;8.10;99.90;;;;;;4975558;28;20031;-76
2022/02/24 03:51:13;;;;;;;3.50;2.10;;;8.10;99.90;;;;;;4974961;28;20123;-74
2022/02/24 03:53:38;;;;;;;3.38;1.95;;;8.10;99.90;;;;;;4975309;28;20062;-74
2022/02/24 03:56:04;;;;;;;5.20;2.10;;;8.10;99.90;;;;;;4976158;28;20054;-77
2022/02/24 03:58:30;;;;;;;5.03;2.63;;;8.10;99.90;;;;;;4974714;28;20070;-76
2022/02/24 04:00:56;;;;;;;5.38;2.33;;;8.10;99.90;;;;;;4974663;28;20125;-78
2022/02/24 04:03:22;;;;;;;3.65;2.30;;;8.10;99.90;;;;;;4974474;28;20105;-76
2022/02/24 04:05:48;;;;;;;3.33;2.00;;;8.20;99.90;;;;;;4974984;28;20023;-76
2022/02/24 04:08:13;;;;;;;4.10;2.15;;;8.10;99.90;;;;;;4975901;28;20322;-77
2022/02/24 04:10:39;;;;;;;5.18;1.90;;;8.10;99.90;;;;;;4974985;28;20035;-76
2022/02/24 04:13:05;;;;;;;4.63;2.40;;;8.10;99.90;;;;;;4975427;28;20031;-77
2022/02/24 04:15:30;;;;;;;4.18;2.35;;;8.10;99.90;;;;;;4974921;28;20027;-76
2022/02/24 04:17:56;;;;;;;3.90;2.00;;;8.10;99.90;;;;;;4974571;28;20062;-77
2022/02/24 04:20:21;;;;;;;6.30;2.33;;;8.10;99.90;;;;;;4974179;28;20117;-76
2022/02/24 04:22:47;;;;;;;5.15;2.30;;;8.10;99.90;;;;;;4974133;28;20042;-76
2022/02/24 04:25:13;;;;;;;4.22;2.03;;;8.10;99.90;;;;;;4973930;28;20027;-76
2022/02/24 04:27:46;;;;;;;7.85;2.00;;;8.10;99.90;;;;;;4974344;28;20039;-74
2022/02/24 04:30:12;;;;;;;2.72;1.80;;;8.10;99.90;;;;;;4974025;28;20023;-77
2022/02/24 04:32:39;;;;;;;3.55;1.95;;;8.10;99.90;;;;;;4974347;28;20034;-76
2022/02/24 04:35:05;;;;;;;6.15;1.95;;;8.10;99.90;;;;;;4974168;28;20027;-77
2022/02/24 04:37:31;;;;;;;4.72;2.20;;;8.00;99.90;;;;;;4979659;28;20054;-74
2022/02/24 04:39:57;;;;;;;2.75;1.67;;;8.10;99.90;;;;;;4995367;28;20042;-78
2022/02/24 04:42:22;;;;;;;2.92;1.88;;;8.00;99.90;;;;;;4977546;28;20031;-77
2022/02/24 04:44:48;;;;;;;5.53;1.98;;;7.90;99.90;;;;;;4977573;28;20026;-77
2022/02/24 04:47:13;;;;;;;3.70;1.90;;;7.90;99.90;;;;;;4994021;28;20121;-77
2022/02/24 04:49:39;;;;;;;5.75;2.13;;;7.90;99.90;;;;;;4977648;28;20113;-77
2022/02/24 04:52:05;;;;;;;7.10;2.08;;;8.00;99.90;;;;;;4976868;28;20136;-77
2022/02/24 04:54:31;;;;;;;3.60;1.75;;;7.90;99.90;;;;;;4976881;28;20124;-76
2022/02/24 04:56:56;;;;;;;2.78;1.70;;;7.90;99.90;;;;;;4977279;28;20489;-74
2022/02/24 04:59:22;;;;;;;3.10;1.80;;;8.00;99.90;;;;;;4994348;28;20037;-74
2022/02/24 05:01:48;;;;;;;3.33;1.92;;;8.00;99.90;;;;;;4977397;28;20534;-74
2022/02/24 05:04:16;;;;;;;4.32;1.88;;;8.00;99.90;;;;;;4977269;28;20026;-74
2022/02/24 05:06:42;;;;;;;5.68;1.80;;;8.00;99.90;;;;;;4977111;28;20427;-75
2022/02/24 05:09:07;;;;;;;3.05;1.90;;;8.00;99.90;;;;;;4976686;28;20031;-75
2022/02/24 05:11:33;;;;;;;3.90;1.73;;;8.00;99.90;;;;;;4977313;28;20033;-75
2022/02/24 05:13:59;;;;;;;3.50;1.80;;;8.00;99.90;;;;;;4994585;28;20034;-74
2022/02/24 05:16:24;;;;;;;5.22;2.10;;;8.10;99.90;;;;;;4976382;28;20038;-74
2022/02/24 05:18:50;;;;;;;5.43;1.73;;;8.10;99.90;;;;;;4976652;28;20027;-74
2022/02/24 05:21:17;;;;;;;4.55;2.08;;;8.10;99.90;;;;;;4976538;28;20038;-74
2022/02/24 05:23:43;;;;;;;3.35;1.65;;;8.10;99.90;;;;;;4976632;28;20022;-74
2022/02/24 05:26:09;;;;;;;4.07;1.98;;;8.10;99.90;;;;;;4976110;28;20027;-75
2022/02/24 05:28:34;;;;;;;2.90;1.85;;;8.10;99.90;;;;;;4976410;28;20038;-75
2022/02/24 05:31:00;;;;;;;4.22;1.90;;;8.00;99.90;;;;;;4976193;28;20161;-77
2022/02/24 05:33:27;;;;;;;4.07;1.70;;;7.90;99.90;;;;;;4975852;28;20493;-74
2022/02/24 05:35:53;;;;;;;2.40;1.73;;;7.90;99.90;;;;;;4976465;28;20081;-74
2022/02/24 05:38:19;;;;;;;4.20;1.95;;;7.80;99.90;;;;;;4975439;28;20054;-74
2022/02/24 05:40:45;;;;;;;3.08;1.80;;;7.70;99.90;;;;;;4976565;28;20038;-74
2022/02/24 05:43:10;;;;;;;3.63;1.80;;;7.70;99.90;;;;;;4975549;28;20022;-73
2022/02/24 05:45:36;;;;;;;4.97;1.70;;;7.70;99.90;;;;;;4976318;28;20049;-74
2022/02/24 05:48:04;;;;;;;2.33;1.88;;;7.60;99.90;;;;;;4993585;28;20038;-78
2022/02/24 05:50:30;;;;;;;2.60;1.73;;;7.60;99.90;;;;;;4976188;28;20030;-74
2022/02/24 05:53:02;;;;;;;2.25;1.70;;;7.50;99.90;;;;;;4976554;28;20037;-74
2022/02/24 05:55:31;;;;;;;3.58;1.60;;;7.40;99.90;;;;;;4976387;28;20456;-74
2022/02/24 05:57:57;;;;;;;3.58;1.88;;;7.40;99.90;;;;;;4976028;28;20148;-74
2022/02/24 06:00:23;;;;;;;3.80;1.63;;;7.50;99.90;;;;;;4992384;28;20093;-74
2022/02/24 06:02:49;;;;;;;7.32;1.65;;;7.50;99.90;;;;;;4975852;28;20030;-74
2022/02/24 06:05:16;;;;;;;3.17;1.75;;;7.50;99.90;;;;;;4975449;28;20030;-74
2022/02/24 06:07:42;;;;;;;3.28;1.85;;;7.50;99.90;;;;;;4976106;28;20042;-74
2022/02/24 06:10:09;;;;;;;2.10;1.50;;;7.40;99.90;;;;;;4975603;28;20030;-74
2022/02/24 06:12:34;;;;;;;4.85;1.90;;;7.40;99.90;;;;;;4976400;28;20031;-74
2022/02/24 06:15:00;;;;;;;4.65;1.58;;;7.40;99.90;;;;;;4976158;28;20022;-75
2022/02/24 06:17:26;;;;;;;3.13;1.73;;;7.40;99.90;;;;;;4992947;28;20022;-74
2022/02/24 06:19:51;;;;;;;2.88;1.52;;;7.50;99.90;;;;;;4975282;28;20037;-74
2022/02/24 06:22:17;;;;;;;2.53;1.75;;;7.50;99.90;;;;;;4975656;28;20030;-74
2022/02/24 06:24:42;;;;;;;3.40;1.92;;;7.60;99.90;;;;;;4976087;28;20538;-74
2022/02/24 06:27:08;;;;;;;3.05;1.75;;;7.60;99.90;;;;;;4975515;28;20038;-75
2022/02/24 06:29:34;;;;;;;3.65;1.80;;;7.50;99.90;;;;;;4976006;28;20049;-74
2022/02/24 06:31:59;;;;;;;3.72;1.90;;;7.50;99.90;;;;;;4975853;28;20030;-74
2022/02/24 06:34:25;;;;;;;3.55;1.70;;;7.60;99.90;;;;;;4975123;28;20026;-74
2022/02/24 06:36:51;;;;;;;4.22;2.10;;;7.60;99.90;;;;;;4975762;28;20121;-74
2022/02/24 06:39:16;;;;;;;2.72;1.85;;;7.60;99.90;;;;;;4975187;28;20058;-74
2022/02/24 06:41:42;;;;;;;3.67;1.50;;;7.50;99.90;;;;;;4992716;28;20036;-74
2022/02/24 06:44:09;;;;;;;4.93;1.77;;;7.50;99.90;;;;;;4975235;28;20026;-77
2022/02/24 06:46:34;;;;;;;5.15;1.70;;;7.50;99.90;;;;;;4975574;28;20026;-75
2022/02/24 06:49:00;;;;;;;4.18;2.10;;;7.50;99.90;;;;;;4975591;28;20089;-74
2022/02/24 06:51:26;;;;;;;6.32;1.98;;;7.50;99.90;;;;;;4975216;28;20101;-75
2022/02/24 06:53:51;;;;;;;4.53;1.75;;;7.50;99.90;;;;;;4976326;28;20409;-75
2022/02/24 06:56:17;;;;;;;4.25;1.85;;;7.50;99.90;;;;;;4978803;28;20031;-75
2022/02/24 06:58:43;;;;;;;4.72;1.67;;;7.50;99.90;;;;;;4979608;28;20065;-75
2022/02/24 07:01:08;;;;;;;3.33;1.80;;;7.50;99.90;;;;;;4978938;28;20469;-77
2022/02/24 07:03:34;;;;;;;3.72;1.80;;;7.50;99.90;;;;;;4979105;28;20080;-76
2022/02/24 07:06:00;;;;;;;4.38;2.15;;;7.50;99.90;;;;;;4979387;28;20030;-76
2022/02/24 07:08:25;;;;;;;4.00;1.88;;;7.50;99.90;;;;;;4978340;28;20114;-75
2022/02/24 07:10:51;;;;;;;2.97;1.85;;;7.60;99.90;;;;;;4996780;28;20052;-75
2022/02/24 07:13:17;;;;;;;4.20;2.03;;;7.60;99.90;;;;;;4978580;28;20088;-76
2022/02/24 07:15:42;;;;;;;3.65;2.05;;;7.60;99.90;;;;;;4979015;28;20188;-75
2022/02/24 07:18:08;;;;;;;3.38;1.92;;;7.60;99.90;;;;;;4996435;28;20034;-78
2022/02/24 07:20:34;;;;;;;3.90;1.83;;;7.70;99.90;;;;;;4979160;28;20037;-75
2022/02/24 07:22:59;;;;;;;3.35;2.03;;;7.70;99.90;;;;;;4979059;28;20030;-75
2022/02/24 07:25:25;;;;;;;4.40;1.88;;;7.80;99.90;;;;;;4978065;28;20475;-75
2022/02/24 07:27:51;;;;;;;3.72;1.67;;;7.90;99.90;;;;;;4978364;28;20435;-75
2022/02/24 07:30:16;;;;;;;5.72;2.03;;;7.90;99.90;;;;;;4978618;28;20026;-76
2022/02/24 07:32:42;;;;;;;3.40;1.80;;;7.90;99.90;;;;;;4978981;28;20022;-75
2022/02/24 07:35:09;;;;;;;4.65;1.80;;;7.90;99.90;;;;;;4979076;28;20113;-76
2022/02/24 07:37:35;;;;;;;5.20;2.10;;;7.90;99.90;;;;;;4975195;28;20043;-76
2022/02/24 07:40:03;;;;;;;6.07;1.92;;;7.90;99.90;;;;;;4975700;28;20488;-75
2022/02/24 07:42:29;;;;;;;3.40;1.63;;;7.90;99.90;;;;;;4975164;28;20035;-75
2022/02/24 07:44:55;;;;;;;5.57;1.88;;;7.90;99.90;;;;;;4975648;28;20065;-75
2022/02/24 07:47:21;;;;;;;5.00;2.10;;;7.90;99.90;;;;;;4975840;28;20073;-75
2022/02/24 07:49:46;;;;;;;3.55;1.80;;;7.90;99.90;;;;;;4975310;28;20035;-75
2022/02/24 07:52:12;;;;;;;9.18;2.08;;;7.90;99.90;;;;;;4975082;28;20031;-77
2022/02/24 07:54:38;;;;;;;4.60;1.90;;;7.90;99.90;;;;;;4975284;28;20428;-75
2022/02/24 07:57:04;;;;;;;3.17;1.98;;;8.00;99.90;;;;;;4976403;28;20037;-74
2022/02/24 07:59:30;;;;;;;3.42;1.88;;;8.00;99.90;;;;;;4974768;28;20373;-74
2022/02/24 08:01:56;;;;;;;7.15;1.98;;;8.00;99.90;;;;;;4975429;28;20037;-74
2022/02/24 08:04:22;;;;;;;4.28;2.10;;;8.00;99.90;;;;;;4974035;28;20034;-74
2022/02/24 08:06:47;;;;;;;3.83;2.28;;;8.10;99.90;;;;;;4974931;28;20031;-75
2022/02/24 08:09:13;;;;;;;4.55;2.00;;;8.10;99.90;;;;;;4974356;28;20064;-75
2022/02/24 08:11:39;;;;;;;4.40;1.75;;;8.10;99.90;;;;;;4974550;28;20039;-74
2022/02/24 08:14:05;;;;;;;6.18;2.20;;;8.20;99.90;;;;;;4974415;28;20053;-75
2022/02/24 08:16:30;;;;;;;3.95;2.15;;;8.10;99.90;;;;;;4974315;28;20081;-74
2022/02/24 08:18:56;;;;;;;6.45;2.20;;;8.10;99.90;;;;;;4974878;28;20031;-74
2022/02/24 08:21:25;;;;;;;5.40;2.65;;;8.20;99.90;;;;;;4974468;28;20022;-75
2022/02/24 08:23:52;;;;;;;4.13;2.83;;;8.20;99.90;;;;;;4974815;28;20023;-75
2022/02/24 08:26:19;;;;;;;3.65;2.47;;;8.30;99.90;;;;;;4980538;28;20018;-75
2022/02/24 08:28:45;;;;;;;7.05;2.55;;;8.30;99.90;;;;;;5010333;28;20165;-74
2022/02/24 08:31:11;;;;;;;7.90;2.58;;;8.40;99.90;;;;;;4993974;28;20378;-74
2022/02/24 08:33:36;;;;;;;4.82;2.42;;;8.40;99.90;;;;;;4994597;28;20093;-74
2022/02/24 08:36:02;;;;;;;12.73;2.78;;;8.50;99.90;;;;;;4994056;28;20317;-75
2022/02/24 08:38:28;;;;;;;4.93;2.58;;;8.50;99.90;;;;;;5006358;28;20360;-75
2022/02/24 08:40:53;;;;;;;3.88;2.30;;;8.60;99.90;;;;;;4997310;28;20060;-75
2022/02/24 08:43:22;;;;;;;3.47;2.17;;;8.70;99.90;;;;;;5014382;28;20438;-76
2022/02/24 08:45:48;;;;;;;7.25;2.58;;;8.70;99.90;;;;;;4997252;28;20022;-75
2022/02/24 08:48:14;;;;;;;4.50;2.25;;;8.70;99.90;;;;;;4988059;28;20037;-75
2022/02/24 08:50:40;;;;;;;3.85;2.35;;;8.80;99.90;;;;;;4987792;28;20367;-75
2022/02/24 08:53:06;;;;;;;4.22;2.17;;;8.80;99.90;;;;;;4987333;28;20410;-75
2022/02/24 08:55:33;;;;;;;4.43;2.50;;;8.90;99.90;;;;;;4985181;28;20268;-74
2022/02/24 08:57:59;;;;;;;4.72;2.40;;;8.90;99.90;;;;;;4988424;28;20026;-75
2022/02/24 09:00:24;;;;;;;3.38;2.28;;;9.00;99.90;;;;;;5003453;28;20089;-75
2022/02/24 09:02:50;;;;;;;2.50;1.80;;;9.10;99.90;;;;;;4987041;28;20034;-75
2022/02/24 09:05:15;;;;;;;4.70;2.35;;;9.10;99.90;;;;;;4999542;28;20490;-75
2022/02/24 09:07:41;;;;;;;3.90;1.70;;;9.10;99.90;;;;;;5004093;28;20084;-75
2022/02/24 09:10:07;;;;;;;2.92;1.92;;;9.20;99.90;;;;;;4986976;28;20041;-74
2022/02/24 09:12:33;;;;;;;4.07;2.30;;;9.30;99.90;;;;;;4981908;28;20477;-75
2022/02/24 09:14:59;;;;;;;4.95;2.47;;;9.40;99.90;;;;;;4987392;28;20025;-74
2022/02/24 09:17:25;;;;;;;4.95;2.10;;;9.50;99.90;;;;;;4983375;28;20386;-74
2022/02/24 09:19:51;;;;;;;3.05;1.95;;;9.60;99.90;;;;;;5001698;28;20030;-74
2022/02/24 09:22:17;;;;;;;3.60;1.98;;;9.60;99.90;;;;;;4975960;28;20427;-74
2022/02/24 09:24:42;;;;;;;9.18;2.72;;;9.70;99.90;;;;;;4976267;28;20065;-75
2022/02/24 09:27:08;;;;;;;5.07;2.10;;;9.80;99.90;;;;;;4993858;28;20038;-75
2022/02/24 09:29:37;;;;;;;5.60;2.20;;;10.00;99.90;;;;;;4977393;28;20563;-77
2022/02/24 09:32:03;;;;;;;3.42;2.00;;;10.10;99.90;;;;;;4975269;28;20463;-76
2022/02/24 09:34:29;;;;;;;5.65;2.33;;;10.30;99.90;;;;;;4976162;28;20536;-76
2022/02/24 09:36:54;;;;;;;3.65;2.33;;;10.40;99.90;;;;;;4976563;28;20026;-77
2022/02/24 09:39:20;;;;;;;3.58;1.98;;;10.50;99.90;;;;;;4992916;28;20462;-75
2022/02/24 09:41:46;;;;;;;5.47;1.75;;;10.60;99.90;;;;;;4976117;28;20053;-77
2022/02/24 09:44:12;;;;;;;3.88;1.85;;;10.60;99.90;;;;;;4976075;28;20038;-77
2022/02/24 09:46:40;;;;;;;2.75;1.60;;;10.60;99.90;;;;;;4975487;28;20035;-77
2022/02/24 09:49:09;;;;;;;2.63;1.50;;;10.70;99.90;;;;;;4969110;28;20039;-77
2022/02/24 09:51:35;;;;;;;2.72;1.20;;;10.70;99.90;;;;;;4993089;28;20031;-76
2022/02/24 09:54:01;;;;;;;3.28;1.52;;;10.60;99.90;;;;;;4993570;28;20041;-77
2022/02/24 09:56:29;;;;;;;4.30;1.50;;;10.70;99.90;;;;;;4975781;28;20464;-77
2022/02/24 09:58:56;;;;;;;2.75;1.40;;;10.80;99.90;;;;;;4975672;28;20041;-80
2022/02/24 10:01:22;;;;;;;4.28;1.33;;;10.90;99.90;;;;;;4965957;28;20074;-77
2022/02/24 10:03:57;;;;;;;4.55;1.17;;;10.90;99.90;;;;;;4970223;28;20040;-76
2022/02/24 10:06:33;;;;;;;1.85;1.00;;;11.00;99.80;;;;;;4975064;28;20037;-76
2022/02/24 10:08:59;;;;;;;2.03;1.00;;;11.00;99.40;;;;;;4993580;28;20038;-76
2022/02/24 10:11:31;;;;;;;4.00;1.00;;;11.00;99.50;;;;;;4992767;28;20030;-78
2022/02/24 10:14:09;;;;;;;2.55;0.90;;;11.00;99.10;;;;;;4976004;28;20026;-78
2022/02/24 10:16:59;;;;;;;4.28;0.98;;;11.10;99.40;;;;;;4959908;28;20113;-77
2022/02/24 10:19:43;;;;;;;3.40;0.90;;;11.20;98.70;;;;;;4974753;28;20045;-79
2022/02/24 10:22:29;;;;;;;2.53;0.85;;;11.30;98.70;;;;;;4975756;28;20026;-78
2022/02/24 10:24:59;;;;;;;1.85;0.90;;;11.20;98.10;;;;;;4975966;28;20088;-78
2022/02/24 10:27:25;;;;;;;4.25;1.02;;;11.30;98.00;;;;;;4992326;28;20031;-79
2022/02/24 10:30:03;;;;;;;2.40;0.90;;;11.30;97.90;;;;;;4978728;28;20360;-79
2022/02/24 10:32:33;;;;;;;3.83;0.90;;;11.40;98.20;;;;;;4956496;28;20027;-79
2022/02/24 10:35:24;;;;;;;2.00;0.90;;;11.50;97.80;;;;;;4962960;28;20048;-78
2022/02/24 10:38:04;;;;;;;2.70;0.88;;;11.60;97.60;;;;;;4983248;28;20042;-81
2022/02/24 10:40:45;;;;;;;4.45;1.23;;;11.60;97.80;;;;;;4992152;28;20037;-80
2022/02/24 10:43:11;;;;;;;1.45;0.88;;;11.60;96.90;;;;;;4975939;28;20026;-80
2022/02/24 10:45:37;;;;;;;2.50;0.73;;;11.60;96.90;;;;;;4992879;28;20153;-79
2022/02/24 10:48:05;;;;;;;2.55;0.98;;;11.70;97.00;;;;;;4975539;28;20038;-79
2022/02/24 10:50:47;;;;;;;2.45;1.02;;;11.80;96.10;;;;;;4974380;28;20049;-79
2022/02/24 10:53:15;;;;;;;2.75;1.13;;;11.90;96.50;;;;;;4975719;28;20030;-82
2022/02/24 10:55:57;;;;;;;2.28;1.02;;;11.90;96.10;;;;;;4975628;28;20053;-77
2022/02/24 10:58:24;;;;;;;4.07;1.17;;;11.90;95.80;;;;;;4975265;28;20034;-77
2022/02/24 11:01:03;;;;;;;3.28;1.13;;;11.90;96.00;;;;;;4975120;28;20066;-75
2022/02/24 11:03:29;;;;;;;2.45;1.08;;;11.90;94.50;;;;;;4991774;28;20034;-76
2022/02/24 11:05:58;;;;;;;7.03;1.30;;;12.00;95.20;;;;;;4974852;28;20026;-76
2022/02/24 11:08:25;;;;;;;3.90;1.02;;;12.00;94.90;;;;;;4973894;28;20089;-76
2022/02/24 11:10:52;;;;;;;2.95;1.23;;;12.10;95.10;;;;;;4975017;28;20471;-76
2022/02/24 11:13:18;;;;;;;4.15;1.42;;;12.20;95.00;;;;;;4974631;28;20033;-76
2022/02/24 11:15:43;;;;;;;4.00;1.20;;;12.20;94.80;;;;;;4974734;28;20023;-77
2022/02/24 11:18:10;;;;;;;2.40;1.02;;;12.30;94.10;;;;;;4974948;28;20498;-77
2022/02/24 11:20:35;;;;;;;3.85;1.33;;;12.30;94.80;;;;;;4974338;28;20064;-76
2022/02/24 11:23:01;;;;;;;5.45;1.33;;;12.30;93.20;;;;;;4974695;28;20474;-76
2022/02/24 11:25:32;;;;;;;3.25;1.10;;;12.30;93.30;;;;;;4974420;28;20093;-76
2022/02/24 11:28:01;;;;;;;2.10;1.30;;;12.30;92.60;;;;;;4991994;28;20439;-76
2022/02/24 11:30:31;;;;;;;3.55;1.20;;;12.30;93.10;;;;;;4991000;28;20538;-76
2022/02/24 11:32:56;;;;;;;3.47;1.23;;;12.30;92.80;;;;;;4974332;28;20027;-76
2022/02/24 11:35:23;;;;;;;6.70;1.42;;;12.30;92.40;;;;;;4974328;28;20034;-77
2022/02/24 11:38:12;;;;;;;2.25;1.08;;;12.30;92.30;;;;;;4974408;28;20046;-76
2022/02/24 11:40:38;;;;;;;2.83;0.98;;;12.40;91.50;;;;;;4975058;28;20014;-76
2022/02/24 11:43:11;;;;;;;2.53;1.17;;;12.50;91.60;;;;;;4978363;28;20077;-76
2022/02/24 11:45:41;;;;;;;1.77;1.00;;;12.60;91.00;;;;;;4978071;28;20022;-76
2022/02/24 11:48:13;;;;;;;2.38;1.08;;;12.70;90.70;;;;;;4975886;28;20102;-77
2022/02/24 11:50:39;;;;;;;2.90;1.20;;;12.80;90.60;;;;;;4978101;28;20463;-76
2022/02/24 11:53:08;;;;;;;2.42;1.10;;;13.00;90.60;;;;;;4978204;28;20030;-76
2022/02/24 11:55:47;;;;;;;2.88;1.02;;;13.10;87.40;;;;;;4977865;28;20061;-76
2022/02/24 11:58:33;;;;;;;3.28;1.17;;;13.10;88.60;;;;;;4976461;28;20483;-76
2022/02/24 12:01:26;;;;;;;3.90;1.00;;;13.10;85.80;;;;;;4977326;28;20033;-76
2022/02/24 12:03:56;;;;;;;2.28;1.08;;;13.10;88.80;;;;;;4975915;28;20031;-76
2022/02/24 12:07:14;;;;;;;3.75;0.95;;;13.10;86.50;;;;;;4995063;28;20018;-76
2022/02/24 12:09:40;;;;;;;3.25;1.15;;;13.10;86.00;;;;;;4872609;29;20041;-76
2022/02/24 12:12:27;;;;;;;2.03;0.85;;;13.20;88.70;;;;;;4889653;29;20160;-75
2022/02/24 12:14:57;;;;;;;2.22;0.90;;;13.10;87.90;;;;;;4888762;29;20064;-75
2022/02/24 12:17:25;;;;;;;4.13;1.42;;;13.20;87.90;;;;;;4888642;29;20096;-76
2022/02/24 12:19:54;;;;;;;5.25;1.50;;;13.10;87.80;;;;;;4891979;29;20486;-76
2022/02/24 12:22:28;;;;;;;5.18;1.20;;;13.10;88.00;;;;;;4888346;29;20590;-76
2022/02/24 12:25:11;;;;;;;1.88;1.00;;;13.00;88.70;;;;;;4888198;29;20609;-77
2022/02/24 12:27:42;;;;;;;2.05;1.30;;;13.10;87.70;;;;;;4879073;29;20140;-76
2022/02/24 12:30:10;;;;;;;4.97;1.05;;;13.10;88.80;;;;;;4889788;29;20021;-76
2022/02/24 12:32:48;;;;;;;4.03;1.10;;;13.00;90.00;;;;;;4886385;29;20650;-77
2022/02/24 12:35:19;;;;;;;4.22;1.33;;;12.90;89.10;;;;;;4905654;29;20530;-76
2022/02/24 12:37:46;;;;;;;3.15;1.13;;;12.90;89.80;;;;;;4887626;29;20149;-76
2022/02/24 12:40:25;;;;;;;1.83;0.98;;;12.90;90.50;;;;;;4966293;28;20038;-76
2022/02/24 12:42:51;;;;;;;2.33;1.13;;;12.90;89.30;;;;;;4997528;28;20386;-77
2022/02/24 12:45:21;;;;;;;3.03;1.13;;;12.90;90.50;;;;;;4997016;28;20033;-80
2022/02/24 12:47:55;;;;;;;1.67;0.98;;;12.80;90.20;;;;;;5014479;28;20426;-76
2022/02/24 12:50:26;;;;;;;3.80;0.85;;;12.80;90.30;;;;;;4996805;28;20125;-77
2022/02/24 12:53:02;;;;;;;2.65;1.45;;;12.80;90.90;;;;;;4997473;28;20022;-77
2022/02/24 12:55:28;;;;;;;3.63;1.05;;;12.80;90.30;;;;;;4996931;28;20037;-76
2022/02/24 12:57:57;;;;;;;2.17;0.95;;;12.70;90.30;;;;;;4997175;28;20029;-76